Time;durP1;ratioP1;P1;durP2;ratioP2;P2;SDS_P1;SDS_P2;PMS_P1;PMS_P2;Temp;Humidity;BMP_temperature;BMP_pressure;BME280_temperature;BME280_humidity;BME280_pressure;Samples;Min_cycle;Max_cycle;Signal;HPM_P1;HPM_P2
2022/12/08 00:01:07;;;;;;;30.33;2.30;;;;;;;20.97;64.45;98789.41;7314151;19;129392;-36
2022/12/08 00:03:33;;;;;;;24.17;2.17;;;;;;;20.98;63.71;98791.06;7312429;19;129644;-35
2022/12/08 00:11:26;;;;;;;44.83;3.42;;;;;;;20.93;63.68;98770.59;7314437;19;129025;-34
2022/12/08 00:13:51;;;;;;;27.13;2.20;;;;;;;21.02;63.93;98780.16;7314610;19;130644;-36
2022/12/08 00:16:17;;;;;;;36.90;3.20;;;;;;;20.99;64.38;98783.06;7315190;19;129341;-35
2022/12/08 00:18:42;;;;;;;13.10;1.27;;;;;;;20.97;64.12;98782.41;7313330;19;129139;-36
2022/12/08 00:21:07;;;;;;;39.03;2.90;;;;;;;20.96;64.16;98778.13;7314857;19;130294;-37
2022/12/08 00:23:33;;;;;;;24.42;2.05;;;;;;;20.93;64.10;98786.28;7312885;19;129302;-35
2022/12/08 00:26:05;;;;;;;30.57;2.63;;;;;;;20.92;63.98;98778.59;7314816;19;128864;-35
2022/12/08 00:28:32;;;;;;;22.85;2.10;;;;;;;20.96;64.12;98780.72;7312620;19;129434;-33
2022/12/08 00:30:57;;;;;;;34.50;2.63;;;;;;;20.97;64.27;98776.34;7314118;19;131145;-36
2022/12/08 00:33:22;;;;;;;19.07;1.73;;;;;;;20.86;63.87;98753.91;7314274;19;129165;-37
2022/12/08 00:35:48;;;;;;;34.28;2.42;;;;;;;20.98;63.82;98778.00;7314365;19;129123;-36
2022/12/08 00:38:13;;;;;;;22.25;1.95;;;;;;;20.96;63.68;98778.13;7313557;19;130220;-33
2022/12/08 00:40:45;;;;;;;36.05;2.97;;;;;;;20.94;64.50;98774.84;7314676;19;130924;-35
2022/12/08 00:43:10;;;;;;;29.27;2.42;;;;;;;20.96;63.53;98772.88;7313115;19;129472;-33
2022/12/08 00:45:36;;;;;;;24.60;2.03;;;;;;;20.94;63.92;98763.59;7313780;19;129514;-37
2022/12/08 00:48:01;;;;;;;20.02;1.55;;;;;;;20.94;63.98;98771.41;7311811;19;129013;-35
2022/12/08 00:50:26;;;;;;;36.80;2.72;;;;;;;20.94;64.30;98759.16;7313871;19;130304;-33
2022/12/08 00:52:52;;;;;;;18.23;1.60;;;;;;;20.94;64.42;98760.97;7314600;19;129329;-36
2022/12/08 00:55:17;;;;;;;13.25;1.27;;;;;;;20.95;63.81;98758.19;7312128;19;130226;-33
2022/12/08 00:57:42;;;;;;;36.70;2.90;;;;;;;20.96;63.97;98756.41;7312483;19;130456;-36
2022/12/08 01:00:08;;;;;;;27.70;2.15;;;;;;;20.97;63.87;98756.28;7312938;19;129607;-36
2022/12/08 01:02:34;;;;;;;24.95;2.10;;;;;;;20.88;64.00;98744.13;7312424;19;128949;-33
2022/12/08 01:04:59;;;;;;;20.67;1.80;;;;;;;20.96;64.48;98759.81;7313883;19;129399;-35
2022/12/08 01:07:24;;;;;;;27.67;2.20;;;;;;;21.01;63.97;98757.59;7311453;19;129389;-38
2022/12/08 01:09:50;;;;;;;24.15;1.95;;;;;;;21.01;64.16;98762.81;7310697;19;129759;-36
2022/12/08 01:12:15;;;;;;;37.88;2.88;;;;;;;20.95;63.90;98746.91;7310040;19;129066;-37
2022/12/08 01:14:40;;;;;;;23.67;2.10;;;;;;;21.01;64.32;98760.22;7311434;19;129891;-36
2022/12/08 01:17:06;;;;;;;44.93;3.30;;;;;;;21.01;64.56;98762.00;7311296;19;129357;-38
2022/12/08 01:19:31;;;;;;;32.63;2.53;;;;;;;21.01;64.67;98768.06;7310476;19;129542;-34
2022/12/08 01:21:56;;;;;;;23.55;1.98;;;;;;;21.00;64.86;98763.81;7310692;19;129151;-36
2022/12/08 01:24:22;;;;;;;24.48;2.15;;;;;;;21.02;63.91;98759.25;7309647;19;129459;-36
2022/12/08 01:26:49;;;;;;;43.77;3.10;;;;;;;21.03;65.11;98757.44;7311833;19;130854;-39
2022/12/08 01:29:14;;;;;;;34.78;2.90;;;;;;;20.93;64.05;98760.13;7310160;19;129241;-36
2022/12/08 01:31:40;;;;;;;31.67;2.70;;;;;;;20.88;63.96;98762.41;7312208;19;130277;-36
2022/12/08 01:34:07;;;;;;;18.30;1.60;;;;;;;20.91;64.12;98759.47;7312582;19;130624;-38
2022/12/08 01:36:37;;;;;;;36.92;2.78;;;;;;;20.97;63.33;98761.50;7309537;19;129627;-38
2022/12/08 01:39:04;;;;;;;20.52;1.77;;;;;;;21.09;62.98;98768.09;7311223;19;130804;-37
2022/12/08 01:41:35;;;;;;;31.73;2.55;;;;;;;21.25;62.32;98749.88;7311359;19;129272;-37
2022/12/08 01:44:07;;;;;;;19.98;1.60;;;;;;;21.38;62.26;98749.41;7309191;19;129658;-36
2022/12/08 01:46:34;;;;;;;35.58;2.75;;;;;;;21.50;61.60;98748.94;7311736;19;130730;-33
2022/12/08 01:49:05;;;;;;;24.10;1.83;;;;;;;21.63;61.18;98746.72;7310432;19;129333;-36
2022/12/08 01:51:34;;;;;;;15.85;1.33;;;;;;;21.69;60.73;98748.69;7311157;19;129174;-34
2022/12/08 01:54:02;;;;;;;24.48;2.15;;;;;;;21.62;60.92;98721.53;7311590;19;129252;-38
2022/12/08 01:56:36;;;;;;;30.02;2.35;;;;;;;21.76;60.95;98741.00;7310806;19;130152;-36
2022/12/08 01:59:02;;;;;;;45.88;3.55;;;;;;;21.73;60.87;98733.50;7309934;19;131068;-33
2022/12/08 02:01:28;;;;;;;24.57;1.97;;;;;;;21.70;61.07;98737.22;7313518;19;129037;-36
2022/12/08 02:04:01;;;;;;;24.43;1.93;;;;;;;21.70;61.39;98733.81;7309094;19;129630;-36
2022/12/08 02:06:31;;;;;;;20.52;1.90;;;;;;;21.64;61.60;98734.44;7310719;19;129209;-37
2022/12/08 02:08:58;;;;;;;26.08;1.95;;;;;;;21.63;61.40;98730.19;7309978;19;131381;-36
2022/12/08 02:11:23;;;;;;;;;;;;;;;21.52;61.17;98723.47;7310996;19;129146;-38
2022/12/08 02:13:51;;;;;;;14.73;1.40;;;;;;;21.49;61.43;98715.94;7311289;19;129066;-36
2022/12/08 02:16:32;;;;;;;31.08;2.67;;;;;;;21.45;61.77;98716.44;7309530;19;130372;-32
2022/12/08 02:19:22;;;;;;;24.98;1.95;;;;;;;21.37;61.78;98717.22;7308894;19;130277;-34
2022/12/08 02:22:13;;;;;;;43.70;3.30;;;;;;;21.30;62.79;98711.00;7310695;19;129304;-34
2022/12/08 02:24:59;;;;;;;22.85;2.05;;;;;;;21.25;62.44;98712.44;7308430;19;129077;-35
2022/12/08 02:27:52;;;;;;;24.73;2.15;;;;;;;21.13;62.51;98706.69;7308860;19;130084;-34
2022/12/08 02:30:36;;;;;;;51.35;3.60;;;;;;;21.15;62.92;98707.38;7308748;19;129866;-35
2022/12/08 02:33:20;;;;;;;15.30;1.48;;;;;;;21.11;62.56;98703.41;7309602;19;129228;-36
2022/12/08 02:35:55;;;;;;;30.65;2.55;;;;;;;21.06;63.53;98713.53;7310424;19;129240;-35
2022/12/08 02:38:27;;;;;;;29.60;2.35;;;;;;;21.00;63.27;98714.16;7311081;19;129465;-35
2022/12/08 02:41:10;;;;;;;25.42;2.05;;;;;;;20.98;63.43;98712.66;7308855;19;130459;-36
2022/12/08 02:43:45;;;;;;;31.95;2.60;;;;;;;20.92;63.74;98705.44;7307391;19;129233;-34
2022/12/08 02:46:16;;;;;;;36.92;3.00;;;;;;;20.90;63.39;98708.22;7309994;19;129033;-36
2022/12/08 02:48:42;;;;;;;24.85;1.90;;;;;;;20.79;64.02;98684.16;7313930;19;129387;-34
2022/12/08 02:51:08;;;;;;;18.20;1.55;;;;;;;20.86;63.45;98699.03;7318349;19;129387;-35
2022/12/08 02:53:35;;;;;;;34.92;2.83;;;;;;;20.83;64.14;98701.97;7317112;19;129148;-35
2022/12/08 02:56:34;;;;;;;41.53;3.25;;;;;;;20.83;64.27;98693.28;7317636;19;128695;-42
2022/12/08 02:59:29;;;;;;;29.20;2.25;;;;;;;20.82;64.38;98687.28;7315101;19;129094;-35
2022/12/08 03:02:13;;;;;;;30.52;2.33;;;;;;;20.80;64.47;98696.22;7315423;19;129485;-36
2022/12/08 03:05:06;;;;;;;31.65;2.30;;;;;;;20.81;64.58;98690.84;7314706;19;129270;-38
2022/12/08 03:07:52;;;;;;;30.15;2.30;;;;;;;20.83;63.57;98690.69;7315866;19;128942;-35
2022/12/08 03:10:42;;;;;;;28.52;2.15;;;;;;;20.81;64.06;98692.66;7316523;19;129901;-34
2022/12/08 03:13:16;;;;;;;28.55;2.47;;;;;;;20.82;64.54;98689.88;7315443;19;129809;-36
2022/12/08 03:15:45;;;;;;;34.47;2.53;;;;;;;20.83;64.48;98691.50;7316570;19;129099;-38
2022/12/08 03:18:14;;;;;;;49.33;3.47;;;;;;;20.83;64.52;98686.28;7315127;19;130017;-38
2022/12/08 03:20:43;;;;;;;25.48;2.03;;;;;;;20.81;64.33;98688.22;7315884;19;129551;-37
2022/12/08 03:23:12;;;;;;;7.80;0.90;;;;;;;20.84;63.99;98687.13;7314720;19;129816;-33
2022/12/08 03:25:43;;;;;;;32.42;2.58;;;;;;;20.92;63.91;98685.34;7316049;19;129270;-38
2022/12/08 03:28:09;;;;;;;39.72;2.95;;;;;;;21.04;62.93;98688.53;7315600;19;128847;-36
2022/12/08 03:30:39;;;;;;;24.60;1.88;;;;;;;21.16;63.19;98693.31;7314549;19;129778;-33
2022/12/08 03:33:19;;;;;;;24.27;1.92;;;;;;;21.29;62.47;98666.69;7314389;19;129269;-35
2022/12/08 03:35:46;;;;;;;25.83;2.10;;;;;;;21.55;61.98;98681.28;7315500;19;129164;-35
2022/12/08 03:38:12;;;;;;;;;;;;;;;21.65;61.07;98658.41;7315745;19;129013;-35
2022/12/08 03:40:38;;;;;;;38.63;2.83;;;;;;;22.10;59.79;98678.09;7315952;19;128922;-37
2022/12/08 03:43:04;;;;;;;18.03;1.67;;;;;;;22.27;59.34;98671.84;7313348;19;129300;-36
2022/12/08 03:45:29;;;;;;;19.37;1.50;;;;;;;22.49;58.75;98665.91;7316343;19;129843;-35
2022/12/08 03:47:55;;;;;;;29.77;2.28;;;;;;;22.56;58.28;98670.31;7313727;19;129340;-35
2022/12/08 03:50:21;;;;;;;23.88;1.98;;;;;;;22.74;58.10;98667.50;7315367;19;128972;-37
2022/12/08 03:52:46;;;;;;;39.55;2.97;;;;;;;22.85;57.99;98659.25;7314181;19;129571;-35
2022/12/08 03:55:12;;;;;;;19.27;1.58;;;;;;;22.86;57.99;98655.66;7315116;19;129747;-36
2022/12/08 03:57:37;;;;;;;51.75;3.92;;;;;;;22.94;57.29;98653.00;7312125;19;129027;-36
2022/12/08 04:00:07;;;;;;;23.60;1.87;;;;;;;23.01;57.03;98651.31;7313880;19;130375;-37
2022/12/08 04:02:33;;;;;;;32.72;2.55;;;;;;;22.97;57.13;98652.66;7314241;19;131013;-33
2022/12/08 04:04:58;;;;;;;22.80;1.63;;;;;;;23.00;56.72;98642.66;7312277;19;130028;-37
2022/12/08 04:07:24;;;;;;;35.17;2.53;;;;;;;22.97;57.68;98648.22;7314256;19;129268;-33
2022/12/08 04:09:49;;;;;;;24.13;1.83;;;;;;;22.96;57.29;98645.78;7311914;19;130988;-34
2022/12/08 04:12:15;;;;;;;10.38;1.08;;;;;;;22.86;57.72;98651.22;7313418;19;130222;-35
2022/12/08 04:14:40;;;;;;;26.15;2.05;;;;;;;22.71;58.07;98625.94;7313811;19;129327;-37
2022/12/08 04:17:05;;;;;;;37.70;2.67;;;;;;;22.70;57.79;98642.63;7315003;19;129500;-37
2022/12/08 04:19:31;;;;;;;33.47;2.77;;;;;;;22.58;58.03;98642.16;7313362;19;130040;-37
2022/12/08 04:21:56;;;;;;;32.37;2.50;;;;;;;22.51;58.70;98640.38;7313668;19;129518;-37
2022/12/08 04:24:21;;;;;;;43.38;3.35;;;;;;;22.44;59.25;98644.63;7312077;19;129222;-32
2022/12/08 04:26:48;;;;;;;43.65;3.15;;;;;;;22.37;59.61;98641.06;7313976;19;129207;-38
2022/12/08 04:29:14;;;;;;;21.85;1.92;;;;;;;22.27;59.38;98632.56;7313023;19;130148;-34
2022/12/08 04:31:39;;;;;;;29.77;2.33;;;;;;;22.15;59.95;98620.81;7314478;19;129800;-37
2022/12/08 04:34:04;;;;;;;24.77;2.05;;;;;;;22.13;60.45;98631.44;7314196;19;130682;-36
2022/12/08 04:36:30;;;;;;;54.43;4.10;;;;;;;22.08;60.27;98630.31;7313380;19;129201;-36
2022/12/08 04:38:55;;;;;;;22.87;1.80;;;;;;;21.98;60.84;98633.91;7312825;19;129848;-40
2022/12/08 04:41:20;;;;;;;23.10;2.03;;;;;;;21.87;60.85;98631.66;7314237;19;130400;-36
2022/12/08 04:43:46;;;;;;;34.15;2.58;;;;;;;21.78;60.74;98630.00;7308795;19;129880;-36
2022/12/08 04:46:11;;;;;;;41.75;3.42;;;;;;;21.72;61.49;98630.63;7314380;19;128991;-36
2022/12/08 04:48:38;;;;;;;32.87;2.50;;;;;;;21.61;61.49;98630.97;7313277;19;128980;-35
2022/12/08 04:51:03;;;;;;;;;;;;;;;21.55;61.67;98636.03;7314806;19;130384;-35
2022/12/08 04:53:29;;;;;;;43.15;3.17;;;;;;;21.48;61.85;98625.41;7310206;19;129401;-38
2022/12/08 04:55:54;;;;;;;22.20;1.80;;;;;;;21.32;61.91;98609.69;7311414;19;129943;-38
2022/12/08 04:58:20;;;;;;;22.17;1.77;;;;;;;21.36;62.71;98621.47;7310296;19;129531;-37
2022/12/08 05:00:47;;;;;;;24.63;2.10;;;;;;;21.29;62.63;98625.69;7309759;19;129619;-33
2022/12/08 05:03:13;;;;;;;33.28;2.50;;;;;;;21.21;62.73;98628.31;7312373;19;129576;-38
2022/12/08 05:05:39;;;;;;;38.70;2.97;;;;;;;21.21;62.56;98632.69;7310058;19;129251;-38
2022/12/08 05:08:09;;;;;;;24.95;1.95;;;;;;;21.05;62.99;98617.81;7309520;19;130862;-36
2022/12/08 05:10:35;;;;;;;38.55;2.95;;;;;;;21.10;63.09;98630.41;7308797;19;129469;-37
2022/12/08 05:13:00;;;;;;;31.93;2.33;;;;;;;21.06;63.26;98624.66;7310195;19;129445;-35
2022/12/08 05:15:26;;;;;;;19.58;1.63;;;;;;;21.04;62.94;98621.38;7311951;19;130332;-36
2022/12/08 05:17:51;;;;;;;8.95;0.93;;;;;;;21.01;63.21;98619.09;7310508;19;130588;-34
2022/12/08 05:20:17;;;;;;;48.75;3.90;;;;;;;20.87;63.86;98600.59;7311547;19;130353;-36
2022/12/08 05:22:42;;;;;;;45.10;3.45;;;;;;;20.97;63.31;98620.41;7311106;19;128933;-39
2022/12/08 05:25:08;;;;;;;28.00;2.27;;;;;;;20.95;64.10;98617.09;7311013;19;130941;-36
2022/12/08 05:27:34;;;;;;;23.85;1.80;;;;;;;20.93;63.66;98608.59;7310126;19;129710;-36
2022/12/08 05:29:59;;;;;;;26.05;2.15;;;;;;;20.92;63.65;98599.13;7311449;19;129507;-36
2022/12/08 05:32:24;;;;;;;42.58;3.38;;;;;;;20.96;63.24;98603.06;7311204;19;129361;-36
2022/12/08 05:34:50;;;;;;;26.98;2.30;;;;;;;20.86;63.57;98584.09;7311829;19;128923;-36
2022/12/08 05:37:15;;;;;;;22.92;1.73;;;;;;;20.99;63.67;98602.75;7311110;19;131109;-36
2022/12/08 05:39:41;;;;;;;27.92;2.25;;;;;;;21.04;63.43;98610.94;7308655;19;129791;-34
2022/12/08 05:42:06;;;;;;;39.88;2.75;;;;;;;21.15;62.64;98597.59;7308685;19;129121;-37
2022/12/08 05:44:31;;;;;;;29.02;2.38;;;;;;;21.27;62.31;98608.56;7310942;19;128905;-35
2022/12/08 05:46:57;;;;;;;12.88;1.25;;;;;;;21.36;61.73;98604.94;7310873;19;131347;-35
2022/12/08 05:49:22;;;;;;;29.60;2.30;;;;;;;21.46;62.01;98609.06;7306934;19;129328;-36
2022/12/08 05:51:47;;;;;;;36.58;2.80;;;;;;;21.58;61.10;98599.91;7311201;19;131079;-33
2022/12/08 05:54:13;;;;;;;36.33;2.78;;;;;;;21.71;61.16;98605.47;7308966;19;130269;-38
2022/12/08 05:56:38;;;;;;;11.50;1.13;;;;;;;21.77;61.27;98604.00;7307820;19;129919;-39
2022/12/08 05:59:07;;;;;;;49.95;3.65;;;;;;;21.89;60.37;98606.13;7308053;19;130030;-37
2022/12/08 06:01:32;;;;;;;26.08;1.95;;;;;;;21.96;60.07;98598.44;7309033;19;130193;-37
2022/12/08 06:04:00;;;;;;;29.33;2.30;;;;;;;22.06;59.97;98606.09;7308703;19;129854;-35
2022/12/08 06:06:26;;;;;;;20.40;1.60;;;;;;;22.13;59.43;98604.47;7309617;19;129575;-36
2022/12/08 06:08:52;;;;;;;27.42;1.98;;;;;;;22.14;59.41;98606.09;7310488;19;129742;-36
2022/12/08 06:11:28;;;;;;;35.53;2.88;;;;;;;22.25;59.11;98605.72;7309127;19;129070;-35
2022/12/08 06:13:55;;;;;;;29.30;2.27;;;;;;;22.29;59.05;98609.66;7311543;19;129230;-37
2022/12/08 06:16:21;;;;;;;21.10;1.52;;;;;;;22.29;59.80;98605.25;7310088;19;129115;-38
2022/12/08 06:18:47;;;;;;;26.33;1.97;;;;;;;22.29;59.21;98605.25;7309480;19;129080;-35
2022/12/08 06:21:14;;;;;;;73.23;5.40;;;;;;;22.26;58.99;98613.44;7307133;19;130174;-39
2022/12/08 06:23:39;;;;;;;18.90;1.60;;;;;;;22.25;58.96;98613.56;7316270;19;129414;-35
2022/12/08 06:26:10;;;;;;;61.28;4.80;;;;;;;22.15;59.52;98610.34;7314020;19;130723;-38
2022/12/08 06:28:36;;;;;;;30.40;2.30;;;;;;;22.11;59.95;98614.28;7315502;19;129684;-37
2022/12/08 06:31:18;;;;;;;51.23;3.87;;;;;;;22.09;59.79;98609.22;7315786;19;129931;-36
2022/12/08 06:33:44;;;;;;;37.17;2.67;;;;;;;21.92;60.36;98597.94;7314937;19;129064;-39
2022/12/08 06:36:12;;;;;;;45.53;3.70;;;;;;;21.92;60.37;98608.41;7313927;19;130060;-40
2022/12/08 06:38:37;;;;;;;22.70;1.88;;;;;;;21.80;60.42;98609.72;7314416;19;129829;-38
2022/12/08 06:41:04;;;;;;;25.63;1.98;;;;;;;21.85;60.55;98611.84;7314358;19;129448;-36
2022/12/08 06:43:30;;;;;;;36.38;2.58;;;;;;;21.82;60.99;98618.25;7314007;19;129934;-38
2022/12/08 06:45:56;;;;;;;28.70;2.33;;;;;;;21.76;61.25;98624.13;7315281;19;130241;-37
2022/12/08 06:48:21;;;;;;;19.53;1.53;;;;;;;21.68;60.79;98625.91;7314576;19;130154;-34
2022/12/08 06:50:46;;;;;;;41.90;3.17;;;;;;;21.61;61.26;98620.50;7313839;19;129434;-34
2022/12/08 06:53:13;;;;;;;26.70;1.90;;;;;;;21.47;61.77;98615.13;7313887;19;129137;-38
2022/12/08 06:55:50;;;;;;;37.42;2.70;;;;;;;21.50;61.39;98626.03;7314524;19;130639;-34
2022/12/08 06:58:15;;;;;;;40.90;3.08;;;;;;;21.45;61.52;98617.88;7313055;19;131077;-37
2022/12/08 07:00:40;;;;;;;27.80;2.17;;;;;;;21.39;62.51;98615.91;7313570;19;129360;-35
2022/12/08 07:03:07;;;;;;;29.23;2.15;;;;;;;21.35;62.51;98612.00;7315499;19;129414;-37
2022/12/08 07:05:34;;;;;;;45.17;3.15;;;;;;;21.31;62.58;98622.91;7309719;19;130352;-36
2022/12/08 07:07:59;;;;;;;28.23;2.08;;;;;;;21.16;62.42;98609.66;7311451;19;130978;-37
2022/12/08 07:10:25;;;;;;;24.75;1.80;;;;;;;21.23;62.68;98621.13;7315961;19;128764;-36
2022/12/08 07:12:50;;;;;;;35.50;2.58;;;;;;;21.19;62.50;98625.03;7315318;19;129032;-39
2022/12/08 07:15:16;;;;;;;35.95;2.50;;;;;;;21.15;62.51;98618.50;7316880;19;129219;-35
2022/12/08 07:17:41;;;;;;;30.88;2.28;;;;;;;21.13;62.81;98623.06;7315739;19;129760;-35
2022/12/08 07:20:07;;;;;;;40.90;2.95;;;;;;;21.09;62.95;98626.97;7316657;19;129151;-38
2022/12/08 07:22:32;;;;;;;19.60;1.60;;;;;;;21.07;63.34;98623.72;7315585;19;129357;-36
2022/12/08 07:24:58;;;;;;;14.48;1.27;;;;;;;21.02;63.58;98633.81;7315439;19;129957;-36
2022/12/08 07:27:23;;;;;;;40.07;3.13;;;;;;;21.00;63.49;98629.72;7315018;19;129802;-36
2022/12/08 07:29:48;;;;;;;29.48;2.08;;;;;;;20.97;63.16;98630.88;7314095;19;129536;-35
2022/12/08 07:32:14;;;;;;;31.57;2.47;;;;;;;20.94;63.23;98623.28;7314103;19;130568;-38
2022/12/08 07:34:39;;;;;;;5.32;0.60;;;;;;;20.97;63.66;98632.63;7315025;19;130218;-37
2022/12/08 07:37:04;;;;;;;33.70;2.60;;;;;;;20.96;63.75;98623.94;7316006;19;130349;-37
2022/12/08 07:39:30;;;;;;;30.83;2.28;;;;;;;20.94;63.20;98630.34;7315379;19;129625;-37
2022/12/08 07:41:55;;;;;;;35.33;2.90;;;;;;;20.93;63.49;98629.50;7316624;19;129007;-40
2022/12/08 07:44:20;;;;;;;13.48;1.20;;;;;;;20.95;63.81;98624.94;7314794;19;129765;-34
2022/12/08 07:46:46;;;;;;;26.85;1.98;;;;;;;20.96;63.70;98623.16;7315012;19;130463;-36
2022/12/08 07:49:12;;;;;;;46.90;3.47;;;;;;;20.97;63.53;98625.63;7314232;19;128744;-37
2022/12/08 07:51:37;;;;;;;23.92;1.75;;;;;;;20.98;63.66;98616.81;7315576;19;129105;-37
2022/12/08 07:54:03;;;;;;;7.68;0.73;;;;;;;21.00;63.51;98620.09;7315859;19;129496;-36
2022/12/08 07:56:28;;;;;;;34.27;2.63;;;;;;;21.07;62.81;98623.72;7315198;19;129871;-36
2022/12/08 07:58:54;;;;;;;28.05;2.10;;;;;;;21.13;62.85;98630.06;7314597;19;129250;-39
2022/12/08 08:01:26;;;;;;;22.35;1.88;;;;;;;21.10;62.49;98614.72;7315766;19;128816;-34
2022/12/08 08:03:54;;;;;;;20.95;1.60;;;;;;;21.22;62.35;98629.13;7314460;19;130205;-32
2022/12/08 08:06:19;;;;;;;34.97;2.72;;;;;;;21.29;62.56;98630.09;7314651;19;130324;-35
2022/12/08 08:08:45;;;;;;;39.83;2.72;;;;;;;21.34;62.23;98623.41;7313640;19;129188;-37
2022/12/08 08:11:10;;;;;;;30.35;2.55;;;;;;;21.39;61.87;98636.81;7314776;19;129143;-38
2022/12/08 08:13:36;;;;;;;19.48;1.52;;;;;;;21.41;61.63;98634.88;7314002;19;129991;-34
2022/12/08 08:16:04;;;;;;;38.67;3.07;;;;;;;21.44;61.66;98638.94;7314349;19;129508;-38
2022/12/08 08:18:29;;;;;;;44.17;3.10;;;;;;;21.45;61.50;98628.31;7314077;19;129176;-35
2022/12/08 08:20:55;;;;;;;26.13;1.90;;;;;;;21.54;61.86;98637.81;7314903;19;129911;-35
2022/12/08 08:23:20;;;;;;;27.07;2.27;;;;;;;21.59;61.50;98634.72;7313469;19;129237;-32
2022/12/08 08:25:45;;;;;;;37.47;2.88;;;;;;;21.53;60.92;98619.69;7308932;19;129510;-33
2022/12/08 08:28:11;;;;;;;18.50;1.55;;;;;;;21.62;60.91;98629.97;7313235;19;129153;-39
2022/12/08 08:30:36;;;;;;;28.58;2.17;;;;;;;21.51;60.89;98617.22;7314520;19;129274;-34
2022/12/08 08:33:01;;;;;;;20.08;1.67;;;;;;;21.58;61.02;98631.31;7313258;19;128996;-37
2022/12/08 08:35:27;;;;;;;60.17;4.27;;;;;;;21.57;61.67;98629.66;7308320;19;129297;-36
2022/12/08 08:37:52;;;;;;;35.08;2.80;;;;;;;21.55;61.76;98636.84;7310791;19;129965;-34
2022/12/08 08:40:17;;;;;;;36.80;2.80;;;;;;;21.45;61.22;98610.00;7310957;19;130416;-38
2022/12/08 08:42:43;;;;;;;46.17;3.53;;;;;;;21.55;61.27;98628.19;7311113;19;129479;-34
2022/12/08 08:45:09;;;;;;;37.67;2.88;;;;;;;21.43;61.62;98612.00;7307926;19;130169;-36
2022/12/08 08:47:34;;;;;;;5.20;0.50;;;;;;;21.55;61.86;98633.41;7311397;19;129243;-34
2022/12/08 08:49:59;;;;;;;29.10;2.43;;;;;;;21.55;61.72;98626.38;7313918;19;128955;-39
2022/12/08 08:52:25;;;;;;;13.73;1.27;;;;;;;21.54;61.80;98635.22;7313803;19;129363;-35
2022/12/08 08:54:50;;;;;;;39.50;2.90;;;;;;;21.59;61.21;98635.53;7313717;19;129436;-34
2022/12/08 08:57:16;;;;;;;49.73;3.93;;;;;;;21.58;61.45;98636.53;7312520;19;130208;-34
2022/12/08 08:59:42;;;;;;;19.08;1.60;;;;;;;21.56;61.23;98630.66;7312109;19;129053;-39
2022/12/08 09:02:15;;;;;;;10.97;1.03;;;;;;;21.58;61.04;98631.31;7313425;19;129185;-33
2022/12/08 09:04:40;;;;;;;31.55;2.28;;;;;;;21.57;61.33;98634.88;7311897;19;130621;-39
2022/12/08 09:07:05;;;;;;;20.42;1.77;;;;;;;21.56;61.38;98638.50;7314890;19;129255;-33
2022/12/08 09:09:31;;;;;;;24.65;2.08;;;;;;;21.58;61.17;98636.53;7311991;19;129889;-35
2022/12/08 09:11:56;;;;;;;24.33;1.77;;;;;;;21.50;61.28;98620.81;7312476;19;129421;-32
2022/12/08 09:14:22;;;;;;;29.92;2.25;;;;;;;21.60;61.61;98639.78;7314216;19;130224;-37
2022/12/08 09:16:48;;;;;;;23.35;2.00;;;;;;;21.56;61.46;98632.44;7313749;19;129010;-36
2022/12/08 09:19:13;;;;;;;28.98;2.15;;;;;;;21.59;61.48;98632.94;7311144;19;129399;-36
2022/12/08 09:21:39;;;;;;;23.13;1.88;;;;;;;21.57;61.12;98629.66;7312576;19;130063;-35
2022/12/08 09:24:04;;;;;;;29.02;2.30;;;;;;;21.58;61.94;98633.91;7312316;19;129576;-35
2022/12/08 09:26:30;;;;;;;24.77;1.92;;;;;;;21.55;61.53;98631.59;7310361;19;129133;-35
2022/12/08 09:28:56;;;;;;;21.23;1.63;;;;;;;21.43;61.47;98617.22;7312684;19;129539;-41
2022/12/08 09:31:22;;;;;;;39.37;3.23;;;;;;;21.51;61.53;98630.31;7311584;19;129851;-36
2022/12/08 09:33:50;;;;;;;22.73;1.80;;;;;;;21.50;61.91;98625.25;7313171;19;129960;-37
2022/12/08 09:36:16;;;;;;;39.63;3.05;;;;;;;21.46;61.79;98627.34;7311099;19;129109;-37
2022/12/08 09:38:41;;;;;;;41.30;3.55;;;;;;;21.43;62.21;98627.69;7308735;19;129240;-38
2022/12/08 09:41:37;;;;;;;27.00;2.38;;;;;;;21.36;61.61;98626.69;7310946;19;130855;-35
2022/12/08 09:44:11;;;;;;;35.42;3.25;;;;;;;21.30;58.60;98610.84;7307501;19;130357;-35
2022/12/08 09:46:38;;;;;;;44.15;4.00;;;;;;;21.33;58.55;98616.56;7311098;19;128950;-36
2022/12/08 09:49:10;;;;;;;44.40;3.72;;;;;;;21.31;59.15;98615.06;7311487;19;128996;-36
2022/12/08 09:51:40;;;;;;;128.32;10.90;;;;;;;21.31;59.60;98612.47;7298325;19;130315;-38
2022/12/08 09:54:19;;;;;;;102.70;8.57;;;;;;;21.33;59.91;98610.50;7281209;19;129916;-37
2022/12/08 09:56:47;;;;;;;113.68;9.45;;;;;;;21.26;60.28;98597.28;7281162;19;129835;-40
2022/12/08 09:59:29;;;;;;;125.47;10.60;;;;;;;21.31;61.09;98602.81;7280107;19;130048;-40
2022/12/08 10:01:55;;;;;;;129.63;10.63;;;;;;;21.30;60.85;98595.97;7280557;19;131442;-36
2022/12/08 10:04:39;;;;;;;96.03;8.98;;;;;;;21.30;60.61;98595.97;7282864;19;130447;-35
2022/12/08 10:07:14;;;;;;;108.82;9.18;;;;;;;21.30;61.10;98590.75;7282416;19;129720;-40
2022/12/08 10:09:43;;;;;;;114.50;9.57;;;;;;;21.30;60.75;98589.91;7280078;19;130354;-38
2022/12/08 10:12:21;;;;;;;104.22;8.73;;;;;;;21.31;61.50;98587.16;7282103;19;130847;-38
2022/12/08 10:15:05;;;;;;;110.97;9.43;;;;;;;21.31;61.06;98581.91;7283173;19;130720;-34
2022/12/08 10:17:39;;;;;;;104.82;8.65;;;;;;;21.33;61.43;98589.59;7283709;19;129666;-38
2022/12/08 10:20:12;;;;;;;131.75;10.32;;;;;;;21.32;61.41;98588.75;7280969;19;129445;-39
2022/12/08 10:22:37;;;;;;;107.10;9.30;;;;;;;21.33;60.97;98585.19;7280918;19;129902;-38
2022/12/08 10:25:17;;;;;;;121.88;10.23;;;;;;;21.30;61.40;98580.28;7279720;19;129989;-37
2022/12/08 10:27:47;;;;;;;118.45;9.68;;;;;;;21.27;61.64;98588.44;7282463;19;130646;-40
2022/12/08 10:30:15;;;;;;;140.80;11.43;;;;;;;21.16;61.18;98569.63;7281326;19;130531;-41
2022/12/08 10:32:44;;;;;;;130.82;10.82;;;;;;;21.22;61.28;98576.84;7280803;19;129896;-37
2022/12/08 10:35:14;;;;;;;20.17;2.20;;;;;;;21.20;61.72;98582.25;7285891;19;129645;-38
2022/12/08 10:37:40;;;;;;;35.13;3.05;;;;;;;21.19;61.93;98570.13;7306765;19;130668;-35
2022/12/08 10:40:17;;;;;;;29.15;3.05;;;;;;;21.08;62.04;98553.94;7306819;19;130886;-42
2022/12/08 10:42:49;;;;;;;15.68;2.10;;;;;;;21.20;61.92;98569.16;7310029;19;129532;-34
2022/12/08 10:45:22;;;;;;;24.40;2.30;;;;;;;21.21;61.89;98568.19;7308315;19;129362;-35
2022/12/08 10:48:02;;;;;;;20.90;2.30;;;;;;;21.22;61.45;98569.81;7309927;19;128940;-35
2022/12/08 10:50:30;;;;;;;58.55;5.32;;;;;;;21.23;62.01;98570.63;7309914;19;129096;-34
2022/12/08 10:53:20;;;;;;;31.40;3.08;;;;;;;21.24;61.41;98562.63;7307478;19;130171;-37
2022/12/08 10:56:02;;;;;;;27.05;2.63;;;;;;;21.23;61.76;98547.94;7309957;19;129868;-35
2022/12/08 10:58:31;;;;;;;26.95;2.50;;;;;;;21.26;61.24;98552.00;7309056;19;128948;-37
2022/12/08 11:01:04;;;;;;;25.27;2.38;;;;;;;21.29;61.38;98549.88;7309023;19;129333;-36
2022/12/08 11:03:34;;;;;;;27.52;2.55;;;;;;;21.34;61.12;98552.81;7309733;19;129913;-37
2022/12/08 11:06:08;;;;;;;48.60;4.03;;;;;;;21.35;61.20;98551.88;7307326;19;129916;-35
2022/12/08 11:08:52;;;;;;;28.55;2.58;;;;;;;21.34;61.71;98541.53;7312103;19;129298;-35
2022/12/08 11:11:19;;;;;;;20.33;2.08;;;;;;;21.37;61.70;98544.66;7317560;19;128999;-33
2022/12/08 11:13:47;;;;;;;29.83;2.95;;;;;;;21.37;61.52;98542.03;7317246;19;130090;-34
2022/12/08 11:16:15;;;;;;;50.28;4.28;;;;;;;21.37;61.47;98549.88;7315604;19;130967;-36
2022/12/08 11:18:45;;;;;;;51.22;4.68;;;;;;;21.33;61.53;98543.38;7316063;19;129593;-34
2022/12/08 11:21:14;;;;;;;21.00;2.03;;;;;;;21.33;61.24;98535.50;7315664;19;130272;-38
2022/12/08 11:23:41;;;;;;;20.23;2.17;;;;;;;21.34;61.45;98542.38;7315664;19;129406;-35
2022/12/08 11:26:31;;;;;;;50.20;4.70;;;;;;;21.29;61.37;98534.19;7313863;19;129319;-35
2022/12/08 11:28:56;;;;;;;21.13;2.17;;;;;;;21.28;61.83;98526.53;7313586;19;130135;-34